Currently 50°F in Beaumont, California, USA
50°F
50°F / 50°F
3 mph SW
0.00"
Monday, May 27, 2019 6:21 AM PDT

Beaumont, California Weather Summary
Last 36 Hours

Temperature Winds Hourly Humidity Dewpoint
Time Report Norm Report Norm Max Gusts Precip. Rpt. Norm Rpt. Norm Pressure
1Mon 06:21 AM  50.4°F  55°F  3 mph SW  1 mph  3 mph  0.00"  81%  73%  45°F  46°F  29.93"
Mon 06:00 AM  50.4°F  54°F  3 mph SW  2 mph  3 mph  0.00"  81%  73%  45°F  46°F  29.93"
Mon 05:00 AM  50.4°F  54°F  3 mph SW  2 mph  3 mph  0.00"  81%  74%  45°F  46°F  29.93"
Mon 04:00 AM  50.4°F  54°F  3 mph SW  2 mph  3 mph  0.00"  81%  74%  45°F  46°F  29.93"
Mon 03:00 AM  50.4°F  55°F  3 mph SW  2 mph  3 mph  0.00"  81%  74%  45°F  47°F  29.93"
Mon 02:00 AM  50.4°F  55°F  3 mph SW  1 mph  3 mph  0.00"  81%  74%  45°F  47°F  29.93"
Mon 01:00 AM  50.4°F  55°F  3 mph SW  2 mph  3 mph  0.00"  81%  75%  45°F  47°F  29.93"
2Mon 12:00 AM  50.4°F  56°F  3 mph SW  2 mph  3 mph  0.00"  81%  74%  45°F  47°F  29.93"
Sun 11:00 PM  50.4°F  57°F  3 mph SW  2 mph  3 mph  0.00"  81%  73%  45°F  48°F  29.93"
Sun 10:02 PM  50.4°F  58°F  3 mph SW  2 mph  3 mph  0.00"  81%  70%  45°F  48°F  29.93"
Sun 09:00 PM  50.4°F  60°F  3 mph SW  3 mph  3 mph  0.00"  81%  66%  45°F  48°F  29.93"
Sun 08:00 PM  50.4°F  62°F  3 mph SW  3 mph  3 mph  0.00"  81%  61%  45°F  49°F  29.93"
Sun 07:00 PM  50.4°F  65°F  3 mph SW  3 mph  3 mph  0.00"  81%  56%  45°F  49°F  29.93"
Sun 06:00 PM  50.4°F  69°F  3 mph SW  4 mph  3 mph  0.00"  81%  50%  45°F  49°F  29.93"
Sun 05:00 PM  50.4°F  70°F  3 mph SW  4 mph  3 mph  0.00"  81%  48%  45°F  48°F  29.93"
Sun 04:00 PM  50.4°F  71°F  3 mph SW  4 mph  3 mph  0.00"  81%  47%  45°F  49°F  29.93"
Sun 03:00 PM  50.4°F  71°F  3 mph SW  4 mph  3 mph  0.00"  81%  47%  45°F  49°F  29.93"
Sun 02:00 PM  50.4°F  70°F  3 mph SW  4 mph  3 mph  0.00"  81%  48%  45°F  49°F  29.93"
Sun 01:00 PM  50.4°F  69°F  3 mph SW  4 mph  3 mph  0.00"  81%  50%  45°F  49°F  29.93"
Sun 12:00 PM  50.4°F  67°F  3 mph SW  4 mph  3 mph  0.00"  81%  54%  45°F  49°F  29.93"
Sun 11:00 AM  50.4°F  64°F  3 mph SW  3 mph  3 mph  0.00"  81%  58%  45°F  49°F  29.93"
Sun 10:00 AM  50.4°F  62°F  3 mph SW  3 mph  3 mph  0.00"  81%  62%  45°F  49°F  29.93"
Sun 09:00 AM  50.4°F  60°F  3 mph SW  3 mph  3 mph  0.00"  81%  67%  45°F  48°F  29.93"
Sun 08:00 AM  50.4°F  58°F  3 mph SW  2 mph  3 mph  0.00"  81%  70%  45°F  48°F  29.93"
Sun 07:00 AM  50.4°F  55°F  3 mph SW  1 mph  3 mph  0.00"  81%  73%  45°F  46°F  29.93"
Sun 06:00 AM  50.4°F  54°F  3 mph SW  2 mph  3 mph  0.00"  81%  74%  45°F  45°F  29.93"
Sun 05:00 AM  50.4°F  54°F  3 mph SW  2 mph  3 mph  0.00"  81%  75%  45°F  45°F  29.93"
Sun 04:00 AM  50.4°F  54°F  3 mph SW  2 mph  3 mph  0.00"  81%  75%  45°F  46°F  29.93"
Sun 03:00 AM  50.4°F  54°F  3 mph SW  2 mph  3 mph  0.00"  81%  75%  45°F  46°F  29.93"
Sun 02:00 AM  50.4°F  55°F  3 mph SW  2 mph  3 mph  0.00"  81%  75%  45°F  46°F  29.93"
Sun 01:00 AM  50.4°F  55°F  3 mph SW  2 mph  3 mph  0.00"  81%  75%  45°F  47°F  29.93"
Sun 12:00 AM  50.4°F  55°F  3 mph SW  2 mph  3 mph  0.00"  81%  75%  45°F  47°F  29.93"
Sat 11:00 PM  50.4°F  56°F  3 mph SW  2 mph  3 mph  0.00"  81%  73%  45°F  47°F  29.93"
Sat 10:00 PM  50.4°F  58°F  3 mph SW  2 mph  3 mph  0.00"  81%  70%  45°F  48°F  29.93"
Sat 09:00 PM  50.4°F  60°F  3 mph SW  3 mph  3 mph  0.00"  81%  66%  45°F  48°F  29.93"
Sat 08:00 PM  50.4°F  62°F  3 mph SW  3 mph  3 mph  0.00"  81%  61%  45°F  48°F  29.93"
Sat 07:00 PM  50.4°F  65°F  3 mph SW  3 mph  3 mph  0.00"  81%  55%  45°F  48°F  29.93"

  1. Current weather data. No green row appears if the current weather data is also the high or low for the current day.
  2. High temperature for the current day.
  3. Low temperature for the current day.

The Beaumont, California weather pages are a service of WeatherCurrents. Cherry Valley is located in northern Riverside County, California, a community of the northern part of Beaumont, along the Interstate 10 highway, in the San Gorgonio pass area, between the communities of Calimesa, Banning.
Copyright ©2019  WeatherCurrents. All rights reserved. - Submit questions and comments - Privacy Policy

This page automatically refreshes every 10 minutes.